createdAt,value
2018-09-17T00:02:26.700Z,-75
2018-09-17T00:04:54.994Z,-75
2018-09-17T00:07:23.081Z,-75
2018-09-17T00:09:51.181Z,-75
2018-09-17T00:12:19.518Z,-75
2018-09-17T00:14:47.660Z,-75
2018-09-17T00:17:15.896Z,-76
2018-09-17T00:19:44.913Z,-76
2018-09-17T00:22:13.256Z,-78
2018-09-17T00:24:41.772Z,-76
2018-09-17T00:27:10.366Z,-75
2018-09-17T00:29:38.611Z,-76
2018-09-17T00:32:07.361Z,-75
2018-09-17T00:34:35.491Z,-76
2018-09-17T00:37:03.761Z,-75
2018-09-17T00:39:32.233Z,-76
2018-09-17T00:42:00.699Z,-77
2018-09-17T00:44:28.990Z,-77
2018-09-17T00:46:57.257Z,-76
2018-09-17T00:49:25.532Z,-79
2018-09-17T00:51:53.743Z,-71
2018-09-17T00:54:21.941Z,-73
2018-09-17T00:56:50.183Z,-73
2018-09-17T00:59:18.758Z,-74
2018-09-17T01:01:47.040Z,-73
2018-09-17T01:04:15.519Z,-73
2018-09-17T01:06:43.785Z,-74
2018-09-17T01:09:43.658Z,-73
2018-09-17T01:12:13.837Z,-73
2018-09-17T01:14:42.163Z,-73
2018-09-17T01:17:10.389Z,-72
2018-09-17T01:19:39.185Z,-74
2018-09-17T01:22:07.457Z,-72
2018-09-17T01:24:36.262Z,-72
2018-09-17T01:27:04.505Z,-71
2018-09-17T01:29:32.655Z,-74
2018-09-17T01:32:00.805Z,-72
2018-09-17T01:34:29.699Z,-72
2018-09-17T01:36:57.873Z,-71
2018-09-17T01:39:26.199Z,-73
2018-09-17T01:41:54.325Z,-73
2018-09-17T01:44:22.574Z,-71
2018-09-17T01:46:50.752Z,-71
2018-09-17T01:49:19.001Z,-72
2018-09-17T01:51:47.147Z,-75
2018-09-17T01:54:15.265Z,-76
2018-09-17T01:56:50.176Z,-77
2018-09-17T01:59:18.477Z,-76
2018-09-17T02:01:46.731Z,-76
2018-09-17T02:04:14.932Z,-80
2018-09-17T02:06:43.175Z,-77
2018-09-17T02:09:11.344Z,-76
2018-09-17T02:11:39.600Z,-77
2018-09-17T02:14:07.994Z,-75
2018-09-17T02:16:36.138Z,-76
2018-09-17T02:19:04.376Z,-77
2018-09-17T02:21:33.516Z,-76
2018-09-17T02:24:01.616Z,-76
2018-09-17T02:26:30.030Z,-78
2018-09-17T02:28:58.406Z,-77
2018-09-17T02:31:26.661Z,-78
2018-09-17T02:33:54.889Z,-77
2018-09-17T02:36:23.161Z,-78
2018-09-17T02:38:51.443Z,-76
2018-09-17T02:41:19.818Z,-78
2018-09-17T02:43:48.734Z,-77
2018-09-17T02:46:17.082Z,-76
2018-09-17T02:48:45.343Z,-75
2018-09-17T02:51:13.719Z,-76
2018-09-17T02:53:42.617Z,-78
2018-09-17T02:56:10.924Z,-76
2018-09-17T02:58:39.190Z,-77
2018-09-17T03:01:07.475Z,-77
2018-09-17T03:03:35.645Z,-77
2018-09-17T03:06:04.020Z,-77
2018-09-17T03:08:32.157Z,-76
2018-09-17T03:11:01.135Z,-76
2018-09-17T03:13:29.293Z,-77
2018-09-17T03:15:57.607Z,-76
2018-09-17T03:18:42.831Z,-78
2018-09-17T03:21:12.523Z,-80
2018-09-17T03:23:40.801Z,-82
2018-09-17T03:26:09.087Z,-76
2018-09-17T03:28:37.253Z,-78
2018-09-17T03:31:05.559Z,-76
2018-09-17T03:33:33.741Z,-76
2018-09-17T03:36:02.109Z,-77
2018-09-17T03:38:42.891Z,-76
2018-09-17T03:41:11.725Z,-78
2018-09-17T03:43:41.025Z,-75
2018-09-17T03:46:09.349Z,-79
2018-09-17T03:48:38.518Z,-78
2018-09-17T03:51:07.681Z,-76
2018-09-17T03:53:36.190Z,-78
2018-09-17T03:56:04.392Z,-75
2018-09-17T03:58:32.589Z,-78
2018-09-17T04:01:01.752Z,-77
2018-09-17T04:03:30.125Z,-76
2018-09-17T04:05:58.747Z,-75
2018-09-17T04:08:28.258Z,-77
2018-09-17T04:10:56.587Z,-80
2018-09-17T04:13:24.859Z,-77
2018-09-17T04:15:53.086Z,-76
2018-09-17T04:18:21.217Z,-75
2018-09-17T04:20:49.558Z,-75
2018-09-17T04:23:24.357Z,-78
2018-09-17T04:25:52.829Z,-75
2018-09-17T04:28:21.112Z,-77
2018-09-17T04:30:49.404Z,-76
2018-09-17T04:33:22.599Z,-78
2018-09-17T04:35:50.928Z,-75
2018-09-17T04:38:19.307Z,-77
2018-09-17T04:40:47.646Z,-76
2018-09-17T04:43:15.863Z,-75
2018-09-17T04:45:44.198Z,-77
2018-09-17T04:48:12.331Z,-75
2018-09-17T04:50:40.632Z,-76
2018-09-17T04:53:08.777Z,-80
2018-09-17T04:55:37.037Z,-80
2018-09-17T04:58:05.259Z,-77
2018-09-17T05:00:33.487Z,-77
2018-09-17T05:03:01.879Z,-77
2018-09-17T05:05:30.065Z,-79
2018-09-17T05:07:58.245Z,-77
2018-09-17T05:10:26.347Z,-75
2018-09-17T05:12:54.917Z,-74
2018-09-17T05:15:23.935Z,-76
2018-09-17T05:17:52.081Z,-76
2018-09-17T05:20:20.325Z,-77
2018-09-17T05:22:48.425Z,-79
2018-09-17T05:25:16.571Z,-79
2018-09-17T05:27:45.194Z,-81
2018-09-17T05:30:13.624Z,-80
2018-09-17T05:32:41.728Z,-79
2018-09-17T05:35:10.021Z,-79
2018-09-17T05:37:38.305Z,-79
2018-09-17T05:40:06.484Z,-82
2018-09-17T05:42:34.694Z,-80
2018-09-17T05:45:02.923Z,-78
2018-09-17T05:47:31.183Z,-78
2018-09-17T05:49:59.355Z,-82
2018-09-17T05:52:27.630Z,-80
2018-09-17T05:54:55.909Z,-79
2018-09-17T05:57:24.223Z,-80
2018-09-17T05:59:52.849Z,-80
2018-09-17T06:02:21.127Z,-79
2018-09-17T06:04:49.288Z,-81
2018-09-17T06:07:17.600Z,-77
2018-09-17T06:09:45.816Z,-80
2018-09-17T06:12:14.135Z,-80
2018-09-17T06:14:42.525Z,-79
2018-09-17T06:17:11.112Z,-75
2018-09-17T06:19:39.408Z,-81
2018-09-17T06:22:10.643Z,-84
2018-09-17T06:24:38.948Z,-81
2018-09-17T06:27:07.173Z,-79
2018-09-17T06:29:35.574Z,-79
2018-09-17T06:32:03.759Z,-83
2018-09-17T06:34:32.213Z,-79
2018-09-17T06:37:00.601Z,-78
2018-09-17T06:39:28.714Z,-79
2018-09-17T06:41:56.827Z,-80
2018-09-17T06:44:24.927Z,-77
2018-09-17T06:46:53.038Z,-81
2018-09-17T06:49:21.263Z,-80
2018-09-17T06:51:49.513Z,-80
2018-09-17T06:54:17.648Z,-78
2018-09-17T06:56:45.842Z,-79
2018-09-17T06:59:13.975Z,-79
2018-09-17T07:01:42.101Z,-81
2018-09-17T07:04:11.233Z,-81
2018-09-17T07:06:39.359Z,-78
2018-09-17T07:09:09.689Z,-80
2018-09-17T07:11:38.013Z,-78
2018-09-17T07:14:06.205Z,-79
2018-09-17T07:16:34.529Z,-78
2018-09-17T07:19:02.695Z,-80
2018-09-17T07:21:31.391Z,-80
2018-09-17T07:23:59.767Z,-78
2018-09-17T07:26:28.299Z,-81
2018-09-17T07:28:56.741Z,-80
2018-09-17T07:31:24.954Z,-78
2018-09-17T07:33:53.143Z,-80
2018-09-17T07:36:21.445Z,-79
2018-09-17T07:38:49.778Z,-80
2018-09-17T07:41:18.772Z,-80
2018-09-17T07:43:47.271Z,-81
2018-09-17T07:46:15.488Z,-80
2018-09-17T07:48:44.348Z,-79
2018-09-17T07:51:12.578Z,-80
2018-09-17T07:53:41.352Z,-79
2018-09-17T07:56:09.728Z,-79
2018-09-17T07:58:37.842Z,-80
2018-09-17T08:01:12.780Z,-79
2018-09-17T08:03:40.912Z,-78
2018-09-17T08:06:09.031Z,-81
2018-09-17T08:08:37.186Z,-80
2018-09-17T08:11:05.541Z,-79
2018-09-17T08:13:33.828Z,-77
2018-09-17T08:16:01.988Z,-79
2018-09-17T08:18:30.372Z,-78
2018-09-17T08:20:58.701Z,-78
2018-09-17T08:23:26.852Z,-79
2018-09-17T08:25:55.168Z,-79
2018-09-17T08:28:23.342Z,-79
2018-09-17T08:30:51.689Z,-79
2018-09-17T08:33:19.871Z,-79
2018-09-17T08:35:48.184Z,-79
2018-09-17T08:38:16.482Z,-79
2018-09-17T08:40:44.628Z,-78
2018-09-17T08:43:12.818Z,-78
2018-09-17T08:45:41.940Z,-79
2018-09-17T08:48:10.180Z,-78
2018-09-17T08:50:38.428Z,-80
2018-09-17T08:53:07.104Z,-80
2018-09-17T08:55:41.006Z,-78
2018-09-17T08:58:14.982Z,-80
2018-09-17T09:00:48.765Z,-80
2018-09-17T09:03:22.604Z,-79
2018-09-17T09:05:56.455Z,-83
2018-09-17T09:08:24.893Z,-79
2018-09-17T09:12:00.697Z,-79
2018-09-17T09:14:33.085Z,-81
2018-09-17T09:17:01.321Z,-79
2018-09-17T09:19:29.530Z,-79
2018-09-17T09:21:57.739Z,-79
2018-09-17T09:24:25.935Z,-79
2018-09-17T09:26:54.103Z,-81
2018-09-17T09:29:23.279Z,-80
2018-09-17T09:31:51.802Z,-79
2018-09-17T09:34:20.051Z,-80
2018-09-17T09:36:48.279Z,-81
2018-09-17T09:39:16.523Z,-80
2018-09-17T09:41:44.615Z,-81
2018-09-17T09:44:12.970Z,-81
2018-09-17T09:46:41.235Z,-81
2018-09-17T09:49:09.495Z,-81
2018-09-17T09:51:37.730Z,-78
2018-09-17T09:54:06.050Z,-81
2018-09-17T09:56:34.315Z,-80
2018-09-17T09:59:03.225Z,-80
2018-09-17T10:01:36.967Z,-82
2018-09-17T10:04:11.405Z,-80
2018-09-17T10:06:39.840Z,-80
2018-09-17T10:09:14.250Z,-80
2018-09-17T10:11:48.254Z,-82
2018-09-17T10:14:22.108Z,-81
2018-09-17T10:16:56.210Z,-80
2018-09-17T10:19:25.038Z,-82
2018-09-17T10:21:53.178Z,-81
2018-09-17T10:24:21.410Z,-80
2018-09-17T10:26:49.572Z,-80
2018-09-17T10:29:17.726Z,-82
2018-09-17T10:31:46.092Z,-79
2018-09-17T10:34:14.996Z,-82
2018-09-17T10:36:43.200Z,-79
2018-09-17T10:39:13.299Z,-82
2018-09-17T10:41:41.600Z,-79
2018-09-17T10:44:09.942Z,-80
2018-09-17T10:46:38.262Z,-81
2018-09-17T10:49:07.446Z,-81
2018-09-17T10:51:35.651Z,-81
2018-09-17T10:54:03.898Z,-81
2018-09-17T10:56:32.132Z,-81
2018-09-17T10:59:01.120Z,-82
2018-09-17T11:01:29.286Z,-83
2018-09-17T11:03:57.601Z,-82
2018-09-17T11:06:25.761Z,-80
2018-09-17T11:08:53.949Z,-80
2018-09-17T11:11:22.376Z,-81
2018-09-17T11:13:50.542Z,-80
2018-09-17T11:16:18.711Z,-82
2018-09-17T11:18:46.927Z,-83
2018-09-17T11:21:15.154Z,-82
2018-09-17T11:23:43.430Z,-81
2018-09-17T11:26:11.653Z,-81
2018-09-17T11:28:39.912Z,-82
2018-09-17T11:31:08.317Z,-83
2018-09-17T11:33:36.467Z,-79
2018-09-17T11:36:04.668Z,-81
2018-09-17T11:38:32.856Z,-79
2018-09-17T11:41:01.037Z,-80
2018-09-17T11:43:29.237Z,-81
2018-09-17T11:45:57.454Z,-83
2018-09-17T11:48:25.609Z,-83
2018-09-17T11:50:53.775Z,-80
2018-09-17T11:53:22.097Z,-80
2018-09-17T11:55:50.226Z,-81
2018-09-17T11:58:18.486Z,-79
2018-09-17T12:00:52.188Z,-81
2018-09-17T12:03:25.964Z,-82
2018-09-17T12:05:59.552Z,-80
2018-09-17T12:08:27.717Z,-81
2018-09-17T12:10:55.925Z,-81
2018-09-17T12:13:24.042Z,-81
2018-09-17T12:15:52.244Z,-79
2018-09-17T12:18:20.416Z,-79
2018-09-17T12:20:48.656Z,-82
2018-09-17T12:23:16.820Z,-80
2018-09-17T12:25:45.132Z,-80
2018-09-17T12:28:13.372Z,-79
2018-09-17T12:30:41.495Z,-78
2018-09-17T12:33:09.630Z,-80
2018-09-17T12:35:38.056Z,-79
2018-09-17T12:38:06.313Z,-70
2018-09-17T12:40:34.706Z,-70
2018-09-17T12:43:02.865Z,-71
2018-09-17T12:45:31.210Z,-70
2018-09-17T12:47:59.465Z,-71
2018-09-17T12:50:27.661Z,-70
2018-09-17T12:52:55.928Z,-71
2018-09-17T12:55:24.159Z,-70
2018-09-17T12:57:53.111Z,-71
2018-09-17T13:00:21.296Z,-71
2018-09-17T13:02:49.517Z,-73
2018-09-17T13:05:17.646Z,-71
2018-09-17T13:07:45.785Z,-72
2018-09-17T13:10:13.949Z,-71
2018-09-17T13:12:42.577Z,-75
2018-09-17T13:15:11.072Z,-70
2018-09-17T13:17:39.340Z,-70
2018-09-17T13:20:08.349Z,-71
2018-09-17T13:22:36.560Z,-70
2018-09-17T13:25:04.800Z,-71
2018-09-17T13:27:32.966Z,-71
2018-09-17T13:30:01.145Z,-69
2018-09-17T13:32:29.473Z,-70
2018-09-17T13:34:57.648Z,-72
2018-09-17T13:37:25.964Z,-69
2018-09-17T13:39:54.222Z,-70
2018-09-17T13:42:22.371Z,-70
2018-09-17T13:44:50.626Z,-69
2018-09-17T13:47:18.989Z,-71
2018-09-17T13:49:47.154Z,-70
2018-09-17T13:52:15.328Z,-69
2018-09-17T13:54:43.525Z,-71
2018-09-17T13:57:11.752Z,-73
2018-09-17T13:59:39.984Z,-72
2018-09-17T14:02:08.207Z,-73
2018-09-17T14:04:36.443Z,-70
2018-09-17T14:07:04.636Z,-71
2018-09-17T14:09:32.957Z,-72
2018-09-17T14:12:01.131Z,-72
2018-09-17T14:14:29.432Z,-71
2018-09-17T14:16:57.635Z,-71
2018-09-17T14:19:25.926Z,-71
2018-09-17T14:21:54.384Z,-71
2018-09-17T14:24:22.560Z,-69
2018-09-17T14:26:50.736Z,-70
2018-09-17T14:29:18.865Z,-72
2018-09-17T14:31:52.776Z,-72
2018-09-17T14:34:20.990Z,-69
2018-09-17T14:36:49.200Z,-70
2018-09-17T14:39:17.317Z,-69
2018-09-17T14:41:45.554Z,-70
2018-09-17T14:44:13.798Z,-71
2018-09-17T14:46:42.146Z,-69
2018-09-17T14:49:10.292Z,-70
2018-09-17T14:51:38.464Z,-69
2018-09-17T14:54:06.634Z,-71
2018-09-17T14:56:34.786Z,-69
2018-09-17T14:59:03.207Z,-70
2018-09-17T15:01:32.067Z,-69
2018-09-17T15:04:00.306Z,-71
2018-09-17T15:06:28.542Z,-69
2018-09-17T15:08:56.674Z,-69
2018-09-17T15:11:25.064Z,-71
2018-09-17T15:13:53.353Z,-70
2018-09-17T15:16:21.555Z,-73
2018-09-17T15:18:49.740Z,-70
2018-09-17T15:21:18.105Z,-70
2018-09-17T15:23:46.247Z,-70
2018-09-17T15:26:14.599Z,-69
2018-09-17T15:28:42.652Z,-70
2018-09-17T15:31:11.000Z,-69
2018-09-17T15:33:39.123Z,-69
2018-09-17T15:36:08.123Z,-69
2018-09-17T15:38:36.231Z,-70
2018-09-17T15:41:04.524Z,-68
2018-09-17T15:43:32.558Z,-71
2018-09-17T15:46:00.885Z,-69
2018-09-17T15:48:29.163Z,-70
2018-09-17T15:50:58.232Z,-71
2018-09-17T15:53:26.376Z,-70
2018-09-17T15:55:54.546Z,-69
2018-09-17T15:58:22.834Z,-70
2018-09-17T16:00:51.013Z,-69
2018-09-17T16:03:19.245Z,-69
2018-09-17T16:05:47.393Z,-69
2018-09-17T16:08:15.595Z,-70
2018-09-17T16:10:43.824Z,-69
2018-09-17T16:13:12.022Z,-69
2018-09-17T16:15:40.313Z,-69
2018-09-17T16:18:09.878Z,-69
2018-09-17T16:20:38.185Z,-68
2018-09-17T16:23:06.390Z,-69
2018-09-17T16:25:34.632Z,-70
2018-09-17T16:28:02.872Z,-70
2018-09-17T16:30:31.089Z,-71
2018-09-17T16:32:59.256Z,-68
2018-09-17T16:35:27.415Z,-69
2018-09-17T16:37:55.644Z,-71
2018-09-17T16:40:23.987Z,-69
2018-09-17T16:42:52.151Z,-71
2018-09-17T16:45:20.413Z,-69
2018-09-17T16:47:48.640Z,-69
2018-09-17T16:50:16.887Z,-69
2018-09-17T16:52:45.132Z,-68
2018-09-17T16:55:16.305Z,-70
2018-09-17T16:57:44.573Z,-69
2018-09-17T17:00:12.831Z,-71
2018-09-17T17:02:41.089Z,-69
2018-09-17T17:05:09.300Z,-71
2018-09-17T17:07:44.136Z,-70
2018-09-17T17:10:12.494Z,-71
2018-09-17T17:12:40.583Z,-69
2018-09-17T17:15:08.934Z,-70
2018-09-17T17:17:37.210Z,-71
2018-09-17T17:20:05.415Z,-69
2018-09-17T17:22:34.184Z,-71
2018-09-17T17:25:02.477Z,-69
2018-09-17T17:27:30.724Z,-70
2018-09-17T17:29:58.940Z,-71
2018-09-17T17:32:27.208Z,-72
2018-09-17T17:34:55.448Z,-69
2018-09-17T17:37:23.650Z,-71
2018-09-17T17:39:52.080Z,-69
2018-09-17T17:42:20.066Z,-71
2018-09-17T17:44:48.265Z,-69
2018-09-17T17:47:16.448Z,-69
2018-09-17T17:49:44.554Z,-71
2018-09-17T17:52:12.869Z,-71
2018-09-17T17:54:41.134Z,-69
2018-09-17T17:57:09.288Z,-69
2018-09-17T17:59:37.522Z,-70
2018-09-17T18:02:05.760Z,-70
2018-09-17T18:04:34.082Z,-70
2018-09-17T18:07:02.308Z,-69
2018-09-17T18:09:30.579Z,-69
2018-09-17T18:11:58.862Z,-69
2018-09-17T18:14:27.002Z,-71
2018-09-17T18:16:55.193Z,-69
2018-09-17T18:19:23.448Z,-69
2018-09-17T18:21:51.767Z,-72
2018-09-17T18:24:19.987Z,-69
2018-09-17T18:26:48.250Z,-69
2018-09-17T18:29:17.433Z,-69
2018-09-17T18:31:45.581Z,-72
2018-09-17T18:34:14.035Z,-69
2018-09-17T18:36:42.175Z,-70
2018-09-17T18:39:10.492Z,-70
2018-09-17T18:41:38.653Z,-70
2018-09-17T18:44:06.853Z,-70
2018-09-17T18:46:35.293Z,-70
2018-09-17T18:49:03.495Z,-70
2018-09-17T18:51:31.716Z,-69
2018-09-17T18:53:59.988Z,-70
2018-09-17T18:56:28.254Z,-72
2018-09-17T18:58:56.416Z,-71
2018-09-17T19:01:24.679Z,-70
2018-09-17T19:03:52.894Z,-71
2018-09-17T19:06:21.130Z,-71
2018-09-17T19:08:49.394Z,-69
2018-09-17T19:11:17.768Z,-69
2018-09-17T19:13:51.381Z,-71
2018-09-17T19:16:25.185Z,-70
2018-09-17T19:18:53.302Z,-71
2018-09-17T19:21:22.700Z,-70
2018-09-17T19:23:56.762Z,-73
2018-09-17T19:26:24.862Z,-71
2018-09-17T19:28:58.718Z,-72
2018-09-17T19:31:26.889Z,-71
2018-09-17T19:33:55.204Z,-70
2018-09-17T19:36:23.596Z,-69
2018-09-17T19:38:57.485Z,-70
2018-09-17T19:41:25.663Z,-70
2018-09-17T19:43:53.935Z,-70
2018-09-17T19:46:22.031Z,-70
2018-09-17T19:48:50.135Z,-70
2018-09-17T19:51:24.113Z,-70
2018-09-17T19:53:52.362Z,-69
2018-09-17T19:56:20.675Z,-71
2018-09-17T19:58:54.367Z,-69
2018-09-17T20:01:22.530Z,-70
2018-09-17T20:03:50.724Z,-70
2018-09-17T20:06:24.052Z,-73
2018-09-17T20:08:52.156Z,-71
2018-09-17T20:11:20.339Z,-69
2018-09-17T20:13:48.527Z,-69
2018-09-17T20:16:16.757Z,-72
2018-09-17T20:18:44.899Z,-71
2018-09-17T20:21:13.280Z,-69
2018-09-17T20:23:42.365Z,-69
2018-09-17T20:26:10.622Z,-68
2018-09-17T20:28:38.738Z,-68
2018-09-17T20:31:07.047Z,-70
2018-09-17T20:33:36.024Z,-70
2018-09-17T20:36:04.710Z,-70
2018-09-17T20:38:32.960Z,-71
2018-09-17T20:41:01.130Z,-69
2018-09-17T20:43:29.398Z,-71
2018-09-17T20:45:57.596Z,-71
2018-09-17T20:48:25.768Z,-71
2018-09-17T20:50:53.906Z,-70
2018-09-17T20:53:22.062Z,-72
2018-09-17T20:55:50.294Z,-73
2018-09-17T20:58:18.503Z,-70
2018-09-17T21:00:46.688Z,-70
2018-09-17T21:03:14.884Z,-71
2018-09-17T21:05:43.088Z,-70
2018-09-17T21:08:11.474Z,-71
2018-09-17T21:10:39.676Z,-70
2018-09-17T21:13:08.041Z,-71
2018-09-17T21:15:36.343Z,-69
2018-09-17T21:18:04.597Z,-70
2018-09-17T21:20:32.747Z,-70
2018-09-17T21:23:01.001Z,-70
2018-09-17T21:25:29.199Z,-70
2018-09-17T21:27:57.675Z,-69
2018-09-17T21:30:25.817Z,-70
2018-09-17T21:32:54.025Z,-69
2018-09-17T21:35:22.230Z,-71
2018-09-17T21:37:50.385Z,-69
2018-09-17T21:40:18.525Z,-69
2018-09-17T21:42:46.709Z,-69
2018-09-17T21:45:14.779Z,-69
2018-09-17T21:47:43.016Z,-71
2018-09-17T21:50:11.250Z,-71
2018-09-17T21:52:39.468Z,-70
2018-09-17T21:55:07.789Z,-71
2018-09-17T21:57:35.976Z,-72
2018-09-17T22:00:04.511Z,-72
2018-09-17T22:02:32.726Z,-72
2018-09-17T22:05:01.095Z,-71
2018-09-17T22:07:29.230Z,-72
2018-09-17T22:09:57.346Z,-74
2018-09-17T22:12:25.454Z,-73
2018-09-17T22:14:54.574Z,-73
2018-09-17T22:17:22.911Z,-74
2018-09-17T22:19:51.077Z,-73
2018-09-17T22:22:19.358Z,-74
2018-09-17T22:24:47.526Z,-75
2018-09-17T22:27:15.653Z,-74
2018-09-17T22:29:43.732Z,-74
2018-09-17T22:32:12.706Z,-73
2018-09-17T22:34:40.898Z,-75
2018-09-17T22:37:09.188Z,-76
2018-09-17T22:39:37.272Z,-76
2018-09-17T22:42:05.588Z,-75
2018-09-17T22:44:33.680Z,-74
2018-09-17T22:47:01.884Z,-74
2018-09-17T22:49:30.120Z,-74
2018-09-17T22:51:58.258Z,-74
2018-09-17T22:54:26.396Z,-75
2018-09-17T22:56:54.511Z,-73
2018-09-17T22:59:22.656Z,-73
2018-09-17T23:01:50.970Z,-73
2018-09-17T23:04:19.072Z,-73
2018-09-17T23:06:47.258Z,-74
2018-09-17T23:09:15.511Z,-73
2018-09-17T23:11:43.838Z,-74
2018-09-17T23:14:12.110Z,-78
2018-09-17T23:16:41.012Z,-75
2018-09-17T23:19:09.139Z,-75
2018-09-17T23:21:37.824Z,-75
2018-09-17T23:24:06.124Z,-75
2018-09-17T23:26:34.415Z,-74
2018-09-17T23:29:02.537Z,-74
2018-09-17T23:31:30.790Z,-73
2018-09-17T23:33:58.977Z,-77
2018-09-17T23:36:27.189Z,-72
2018-09-17T23:38:55.504Z,-73
2018-09-17T23:41:23.679Z,-74
2018-09-17T23:43:51.990Z,-74
2018-09-17T23:46:20.105Z,-74
2018-09-17T23:48:48.355Z,-74
2018-09-17T23:51:16.436Z,-75
2018-09-17T23:53:44.977Z,-73
2018-09-17T23:56:13.190Z,-75
2018-09-17T23:58:41.515Z,-74
